Map

Track Data

SID SEASON NUMBER BASIN SUBBASIN NAME ISO_TIME NATURE LAT LON WMO_WIND WMO_PRES WMO_AGENCY TRACK_TYPE DIST2LAND LANDFALL IFLAG USA_AGENCY USA_ATCF_ID USA_LAT USA_LON USA_RECORD USA_STATUS USA_WIND USA_PRES USA_SSHS USA_R34_NE USA_R34_SE USA_R34_SW USA_R34_NW USA_R50_NE USA_R50_SE USA_R50_SW USA_R50_NW USA_R64_NE USA_R64_SE USA_R64_SW USA_R64_NW USA_POCI USA_ROCI USA_RMW USA_EYE TOKYO_LAT TOKYO_LON TOKYO_GRADE TOKYO_WIND TOKYO_PRES TOKYO_R50_DIR TOKYO_R50_LONG TOKYO_R50_SHORT TOKYO_R30_DIR TOKYO_R30_LONG TOKYO_R30_SHORT TOKYO_LAND CMA_LAT CMA_LON CMA_CAT CMA_WIND CMA_PRES HKO_LAT HKO_LON HKO_CAT HKO_WIND HKO_PRES NEWDELHI_LAT NEWDELHI_LON NEWDELHI_GRADE NEWDELHI_WIND NEWDELHI_PRES NEWDELHI_CI NEWDELHI_DP NEWDELHI_POCI REUNION_LAT REUNION_LON REUNION_TYPE REUNION_WIND REUNION_PRES REUNION_TNUM REUNION_CI REUNION_RMW REUNION_R34_NE REUNION_R34_SE REUNION_R34_SW REUNION_R34_NW REUNION_R50_NE REUNION_R50_SE REUNION_R50_SW REUNION_R50_NW REUNION_R64_NE REUNION_R64_SE REUNION_R64_SW REUNION_R64_NW BOM_LAT BOM_LON BOM_TYPE BOM_WIND BOM_PRES BOM_TNUM BOM_CI BOM_RMW BOM_R34_NE BOM_R34_SE BOM_R34_SW BOM_R34_NW BOM_R50_NE BOM_R50_SE BOM_R50_SW BOM_R50_NW BOM_R64_NE BOM_R64_SE BOM_R64_SW BOM_R64_NW BOM_ROCI BOM_POCI BOM_EYE BOM_POS_METHOD BOM_PRES_METHOD NADI_LAT NADI_LON NADI_CAT NADI_WIND NADI_PRES WELLINGTON_LAT WELLINGTON_LON WELLINGTON_WIND WELLINGTON_PRES DS824_LAT DS824_LON DS824_STAGE DS824_WIND DS824_PRES TD9636_LAT TD9636_LON TD9636_STAGE TD9636_WIND TD9636_PRES TD9635_LAT TD9635_LON TD9635_WIND TD9635_PRES TD9635_ROCI NEUMANN_LAT NEUMANN_LON NEUMANN_CLASS NEUMANN_WIND NEUMANN_PRES MLC_LAT MLC_LON MLC_CLASS MLC_WIND MLC_PRES USA_GUST BOM_GUST BOM_GUST_PER REUNION_GUST REUNION_GUST_PER USA_SEAHGT USA_SEARAD_NE USA_SEARAD_SE USA_SEARAD_SW USA_SEARAD_NW STORM_SPEED STORM_DIR
1949169N14253 1949 39 EP MM NOT_NAMED 1949-06-17 12:00:00 TS 14.1000 -107.000 45 hurdat_epa main 600 596 O________OO___ hurdat_epa EP021949 14.1000 -107.000 TS 45 0 14.1000 -107.000 TC 45 14.1000 -107.000 2 9 307
1949169N14253 1949 39 EP MM NOT_NAMED 1949-06-17 15:00:00 TS 14.3553 -107.349 main 595 594 P________PP___ EP021949 14.3601 -107.352 TS 45 0 14.3601 -107.352 TC 45 14.3362 -107.337 2 8 306
1949169N14253 1949 39 EP MM NOT_NAMED 1949-06-17 18:00:00 TS 14.5936 -107.696 45 hurdat_epa main 600 596 O________OP___ hurdat_epa EP021949 14.6000 -107.700 TS 45 0 14.6000 -107.700 TC 45 14.5678 -107.679 2 8 304
1949169N14253 1949 39 EP MM NOT_NAMED 1949-06-17 21:00:00 TS 14.8040 -108.041 main 598 595 P________PP___ EP021949 14.8074 -108.043 TS 45 0 14.8074 -108.043 TC 45 14.7905 -108.032 2 8 301
1949169N14253 1949 39 EP MM NOT_NAMED 1949-06-18 00:00:00 TS 15.0000 -108.400 45 hurdat_epa main 606 604 O________OO___ hurdat_epa EP021949 15.0000 -108.400 TS 45 0 15.0000 -108.400 TC 45 15.0000 -108.400 2 8 299
1949169N14253 1949 39 EP MM NOT_NAMED 1949-06-18 03:00:00 TS 15.2046 -108.791 main 617 616 P________PP___ EP021949 15.2075 -108.793 TS 45 0 15.2075 -108.793 TC 45 15.1933 -108.786 2 9 297
1949169N14253 1949 39 EP MM NOT_NAMED 1949-06-18 06:00:00 TS 15.3945 -109.197 45 hurdat_epa main 631 631 O________OP___ hurdat_epa EP021949 15.4000 -109.200 TS 45 0 15.4000 -109.200 TC 45 15.3724 -109.185 2 9 294
1949169N14253 1949 39 EP MM NOT_NAMED 1949-06-18 09:00:00 TS 15.5540 -109.598 main 646 646 P________PP___ EP021949 15.5574 -109.600 TS 45 0 15.5574 -109.600 TC 45 15.5402 -109.592 2 8 292
1949169N14253 1949 39 EP MM NOT_NAMED 1949-06-18 12:00:00 TS 15.7000 -110.000 45 hurdat_epa main 669 669 O________OO___ hurdat_epa EP021949 15.7000 -110.000 TS 45 0 15.7000 -110.000 TC 45 15.7000 -110.000 2 8 291
1949169N14253 1949 39 EP MM NOT_NAMED 1949-06-18 15:00:00 TS 15.8497 -110.403 main 694 687 P________PP___ EP021949 15.8499 -110.400 TS 45 0 15.8499 -110.400 TC 45 15.8490 -110.412 2 8 291
1949169N14253 1949 39 EP MM NOT_NAMED 1949-06-18 18:00:00 TS 15.9985 -110.805 45 hurdat_epa main 714 714 O________OP___ hurdat_epa EP021949 16.0000 -110.800 TS 45 0 16.0000 -110.800 TC 45 15.9924 -110.823 2 8 291
1949169N14253 1949 39 EP MM NOT_NAMED 1949-06-18 21:00:00 TS 16.1419 -111.210 main 742 736 P________PP___ EP021949 16.1425 -111.208 TS 45 0 16.1425 -111.208 TC 45 16.1396 -111.222 2 8 292
1949169N14253 1949 39 EP MM NOT_NAMED 1949-06-19 00:00:00 TS 16.3000 -111.600 45 hurdat_epa main 756 742 O________OO___ hurdat_epa EP021949 16.3000 -111.600 TS 45 0 16.3000 -111.600 TC 45 16.3000 -111.600 2 8 296
1949169N14253 1949 39 EP MM NOT_NAMED 1949-06-19 03:00:00 TS 16.4902 -111.962 main 745 730 P________PP___ EP021949 16.4924 -111.965 TS 45 0 16.4924 -111.965 TC 45 16.4813 -111.951 2 8 301
1949169N14253 1949 39 EP MM NOT_NAMED 1949-06-19 06:00:00 TS 16.6954 -112.296 45 hurdat_epa main 733 720 O________OP___ hurdat_epa EP021949 16.7000 -112.300 TS 45 0 16.7000 -112.300 TC 45 16.6771 -112.280 2 7 303
1949169N14253 1949 39 EP MM NOT_NAMED 1949-06-19 09:00:00 TS 16.8968 -112.605 main 723 711 P________PP___ EP021949 16.8999 -112.608 TS 45 0 16.8999 -112.608 TC 45 16.8844 -112.595 2 7 305
1949169N14253 1949 39 EP MM NOT_NAMED 1949-06-19 12:00:00 TS 17.1000 -112.900 45 hurdat_epa main 715 704 O________OO___ hurdat_epa EP021949 17.1000 -112.900 TS 45 0 17.1000 -112.900 TC 45 17.1000 -112.900 2 7 305
1949169N14253 1949 39 EP MM NOT_NAMED 1949-06-19 15:00:00 TS 17.2975 -113.203 main 709 700 P________PP___ EP021949 17.2925 -113.200 TS 45 0 17.2925 -113.200 TC 45 17.3177 -113.215 2 7 305
1949169N14253 1949 39 EP MM NOT_NAMED 1949-06-19 18:00:00 TS 17.5085 -113.505 45 hurdat_epa main 705 697 O________OP___ hurdat_epa EP021949 17.5000 -113.500 TS 45 0 17.5000 -113.500 TC 45 17.5424 -113.523 2 7 308
1949169N14253 1949 39 EP MM NOT_NAMED 1949-06-19 21:00:00 TS 17.7542 -113.810 main 694 691 P________PP___ EP021949 17.7500 -113.807 TS 45 0 17.7500 -113.807 TC 45 17.7709 -113.819 2 8 311
1949169N14253 1949 39 EP MM NOT_NAMED 1949-06-20 00:00:00 TS 18.0000 -114.100 45 hurdat_epa main 694 690 O________OO___ hurdat_epa EP021949 18.0000 -114.100 TS 45 0 18.0000 -114.100 TC 45 18.0000 -114.100 2 7 311
1949169N14253 1949 39 EP MM NOT_NAMED 1949-06-20 03:00:00 TS 18.2041 -114.360 main 697 688 P________PP___ EP021949 18.1999 -114.358 TS 45 0 18.1999 -114.358 TC 45 18.2208 -114.369 2 6 310
1949169N14253 1949 39 EP MM NOT_NAMED 1949-06-20 06:00:00 TS 18.4085 -114.605 45 hurdat_epa main 694 692 O________OP___ hurdat_epa EP021949 18.4000 -114.600 TS 45 0 18.4000 -114.600 TC 45 18.4423 -114.623 2 6 313
1949169N14253 1949 39 EP MM NOT_NAMED 1949-06-20 09:00:00 TS 18.6475 -114.853 main 700 692 P________PP___ EP021949 18.6425 -114.850 TS 45 0 18.6425 -114.850 TC 45 18.6677 -114.866 2 7 316
1949169N14253 1949 39 EP MM NOT_NAMED 1949-06-20 12:00:00 TS 18.9000 -115.100 45 hurdat_epa main 693 693 O________OO___ hurdat_epa EP021949 18.9000 -115.100 TS 45 0 18.9000 -115.100 TC 45 18.9000 -115.100 2 7 316
1949169N14253 1949 39 EP MM NOT_NAMED 1949-06-20 15:00:00 TS 19.1477 -115.354 main 703 691 P________PP___ EP021949 19.1500 -115.358 TS 45 0 19.1500 -115.358 TC 45 19.1387 -115.340 2 7 317
1949169N14253 1949 39 EP MM NOT_NAMED 1949-06-20 18:00:00 TS 19.3970 -115.595 45 hurdat_epa main 691 679 O________OP___ hurdat_epa EP021949 19.4000 -115.600 TS 45 0 19.4000 -115.600 TC 45 19.3849 -115.573 2 7 320
1949169N14253 1949 39 EP MM NOT_NAMED 1949-06-20 21:00:00 TS 19.6477 -115.805 main 685 669 P________PP___ EP021949 19.6500 -115.808 TS 45 0 19.6500 -115.808 TC 45 19.6387 -115.794 2 6 323
1949169N14253 1949 39 EP MM NOT_NAMED 1949-06-21 00:00:00 TS 19.9000 -116.000 45 hurdat_epa main 669 658 O________OO___ hurdat_epa EP021949 19.9000 -116.000 TS 45 0 19.9000 -116.000 TC 45 19.9000 -116.000 2 6 323
1949169N14253 1949 39 EP MM NOT_NAMED 1949-06-21 03:00:00 TS 20.1483 -116.203 main 664 652 P________PP___ EP021949 20.1425 -116.208 TS 45 0 20.1425 -116.208 TC 45 20.1717 -116.186 2 6 324
1949169N14253 1949 39 EP MM NOT_NAMED 1949-06-21 06:00:00 TS 20.4100 -116.392 45 hurdat_epa main 652 635 O________OP___ hurdat_epa EP021949 20.4000 -116.400 TS 45 0 20.4000 -116.400 TC 45 20.4498 -116.358 2 6 330
1949169N14253 1949 39 EP MM NOT_NAMED 1949-06-21 09:00:00 TS 20.7055 -116.545 main 635 626 P________PP___ EP021949 20.6999 -116.550 TS 45 0 20.6999 -116.550 TC 45 20.7280 -116.526 2 7 334
1949169N14253 1949 39 EP MM NOT_NAMED 1949-06-21 12:00:00 TS 21.0000 -116.700 45 hurdat_epa main 626 618 O________OO___ hurdat_epa EP021949 21.0000 -116.700 TS 45 0 21.0000 -116.700 TC 45 21.0000 -116.700 2 6 329
1949169N14253 1949 39 EP MM NOT_NAMED 1949-06-21 15:00:00 TS 21.2566 -116.895 main 619 619 P________PP___ EP021949 21.2575 -116.893 TS 45 0 21.2575 -116.893 TC 45 21.2532 -116.905 2 6 323
1949169N14253 1949 39 EP MM NOT_NAMED 1949-06-21 18:00:00 TS 21.5000 -117.103 45 hurdat_epa main 621 615 O________OP___ hurdat_epa EP021949 21.5000 -117.100 TS 45 0 21.5000 -117.100 TC 45 21.5001 -117.115 2 6 322
1949169N14253 1949 39 EP MM NOT_NAMED 1949-06-21 21:00:00 TS 21.7494 -117.310 main 625 619 P________PP___ EP021949 21.7500 -117.308 TS 45 0 21.7500 -117.308 TC 45 21.7469 -117.318 2 6 324
1949169N14253 1949 39 EP MM NOT_NAMED 1949-06-22 00:00:00 TS 22.0000 -117.500 45 hurdat_epa main 624 618 O________OO___ hurdat_epa EP021949 22.0000 -117.500 TS 45 0 22.0000 -117.500 TC 45 22.0000 -117.500 2 6 326
1949169N14253 1949 39 EP MM NOT_NAMED 1949-06-22 03:00:00 TS 22.2435 -117.668 main 631 620 P________PP___ EP021949 22.2425 -117.665 TS 45 0 22.2425 -117.665 TC 45 22.2475 -117.679 2 6 331
1949169N14253 1949 39 EP MM NOT_NAMED 1949-06-22 06:00:00 TS 22.5010 -117.806 45 hurdat_epa main 625 604 O________OP___ hurdat_epa EP021949 22.5000 -117.800 TS 45 0 22.5000 -117.800 TC 45 22.5050 -117.832 2 6 336
1949169N14253 1949 39 EP MM NOT_NAMED 1949-06-22 09:00:00 TS 22.7790 -117.927 main 604 583 P________PP___ EP021949 22.7775 -117.922 TS 45 0 22.7775 -117.922 TC 45 22.7850 -117.944 2 6 344
1949169N14253 1949 39 EP MM NOT_NAMED 1949-06-22 12:00:00 TS 23.1000 -118.000 45 hurdat_epa main 583 549 O________OO___ hurdat_epa EP021949 23.1000 -118.000 TS 45 0 23.1000 -118.000 TC 45 23.1000 -118.000 2 7 352
1949169N14253 1949 39 EP MM NOT_NAMED 1949-06-22 15:00:00 TS 23.4832 -118.030 main 549 515 P________PP___ EP021949 23.4850 -118.037 TS 45 0 23.4850 -118.037 TC 45 23.4761 -117.999 2 8 1
1949169N14253 1949 39 EP MM NOT_NAMED 1949-06-22 18:00:00 TS 23.8970 -117.988 45 hurdat_epa main 515 477 O________OP___ hurdat_epa EP021949 23.9000 -118.000 TS 45 0 23.9000 -118.000 TC 45 23.8849 -117.940 2 8 10
1949169N14253 1949 39 EP MM NOT_NAMED 1949-06-22 21:00:00 TS 24.3063 -117.865 main 477 429 P________PP___ EP021949 24.3075 -117.873 TS 45 0 24.3075 -117.873 TC 45 24.3012 -117.836 2 8 18
1949169N14253 1949 39 EP MM NOT_NAMED 1949-06-23 00:00:00 TS 24.7000 -117.700 45 hurdat_epa main 429 397 O________OO___ hurdat_epa EP021949 24.7000 -117.700 TS 45 0 24.7000 -117.700 TC 45 24.7000 -117.700 2 8 20
1949169N14253 1949 39 EP MM NOT_NAMED 1949-06-23 03:00:00 TS 25.0644 -117.554 main 388 350 P________PP___ EP021949 25.0650 -117.557 TS 45 0 25.0650 -117.557 TC 45 25.0623 -117.543 2 8 22
1949169N14253 1949 39 EP MM NOT_NAMED 1949-06-23 06:00:00 TS 25.3985 -117.394 45 hurdat_epa main 350 312 O________OP___ hurdat_epa EP021949 25.4000 -117.400 TS 45 0 25.4000 -117.400 TC 45 25.3927 -117.370 2 7 26
1949169N14253 1949 39 EP MM NOT_NAMED 1949-06-23 09:00:00 TS 25.7064 -117.206 main 312 274 P________PP___ EP021949 25.7076 -117.210 TS 45 0 25.7076 -117.210 TC 45 25.7018 -117.188 2 7 31
1949169N14253 1949 39 EP MM NOT_NAMED 1949-06-23 12:00:00 TS 26.0000 -117.000 45 hurdat_epa main 274 O________OO___ hurdat_epa EP021949 26.0000 -117.000 TS 45 0 26.0000 -117.000 TC 45 26.0000 -117.000 2 7 32

About IBTrACS Database

This database is a web-friendly format of International Best Track Archive for Climate Stewardship (IBTrACS), a global best track data archive curated by NOAA dating back to 1842.

Updated: 2021-12-01